الصفحة الرئيسية
METAR-TAF:

METAR-TAF

مطار :

مطار بكين العاصمة الدولي

بكين, جمهورية الصين الشعبية

دائرة عرض: 39-56N, خط طول: 116-17E, ارتفاع: 55 متر

مراقبة الطقس الحالي

تاريخ ووقت الإصدار 37 دقيقة قبل الساعة 00:30UTC
ريح 6 عقدة من الجنوب الغربي, الاتجاه يتراوح بين الجنوب و الشمال الغربي
درجة الحرارة 30°درجة مئوية
الرطوبة 52%
ضغط 1003 hPa
الرؤية 10 كم أو أكثر
الغيوم لا تقل 1500 م ولا وجود لمزنة ركامية السحاب الأسود

METAR: ZBAA 240030Z 22003MPS 170V320 CAVOK 30/19 Q1003 NOSIG

زمن: 09:07 (01:07 UTC)

توقعات

تاريخ ووقت الإصدار 3ساعات و 47 دقيقة قبل الساعة 21:20UTC
التوقعات صالحة من24 الساعة 00 UTC إلى 24 الساعة 24 UTC
ريح 8 عقدة من الجنوب
الرؤية 10 كم أو أكثر
الغيوم لا تقل 1500 م ولا وجود لمزنة ركامية السحاب الأسود

TAF: ZBAA 232120Z 2400/2424 18004MPS CAVOK TX36/2407Z TN23/2421Z

أرصاد الطقس والتوقعات من أكثر من 4000 مطار (تقارير الطقس للمطار METAR والتنبؤ بالطقس بالمطارTAF).

المحطات المتاحة هي النقط الصفراء والحمراء على الخريطة.

حرك المؤشر فوق النقطة لمعرفة اسم المحطة.

ثم انقر لمعرفة أرصاد وتوقعات الطقس.

لتغيير الخارطة: اضغط على الأزرار الخضراء مع رمز الصليب الأسود للتكبير. على الزر الأخضر مع شرطة للتصغير، أو على الأسهم الخضراء للخرائط المجاورة.


METAR-TAF: